EDDR/SCN METAR and TAF weather

Enter ICAO airport designator
Station Type Date Time Source
EDDR METAR 2021/03/04 21:20 UTC NOAA

EDDR 042120Z 30008KT 280V340 9999 FEW009 05/03 Q1018 NOSIG


Station Type Date Time Source
EDDR Decoded METAR 2021/03/04 21:20 UTC NOAA

Saarbruecken / Ensheim, Germany (EDDR) 49-13N 007-07E 320M
Mar 04, 2021 - 04:20 PM EST / 2021.03.04 2120 UTC
Wind: from the WNW (300 degrees) at 9 MPH (8 KT) (direction variable):0
Visibility: greater than 7 mile(s):0
Sky conditions: mostly clear
Temperature: 41 F (5 C)
Dew Point: 37 F (3 C)
Relative Humidity: 86%
Pressure (altimeter): 30.06 in. Hg (1018 hPa)
ob: EDDR 042120Z 30008KT 280V340 9999 FEW009 05/03 Q1018 NOSIG
cycle: 21

Station Type Date Time Source
EDDR TAF 2021/03/04 18:59 UTC NOAA

TAF
AMD EDDR 041850Z 0418/0518 31007KT 9999 BKN020
TEMPO 0419/0506 4000 -RADZ BKN008
BECMG 0504/0507 02007KT
TEMPO 0506/0509 BKN012

Example: see airport list